Time;durP1;ratioP1;P1;durP2;ratioP2;P2;SDS_P1;SDS_P2;PMS_P1;PMS_P2;Temp;Humidity;BMP_temperature;BMP_pressure;BME280_temperature;BME280_humidity;BME280_pressure;Samples;Min_cycle;Max_cycle;Signal;HPM_P1;HPM_P2
2022/01/23 00:00:15;;;;;;;31.30;22.25;;;8.70;99.90;;;;;;5051528;28;20028;-78
2022/01/23 00:02:41;;;;;;;34.15;23.60;;;8.70;99.90;;;;;;5051881;28;20483;-77
2022/01/23 00:05:08;;;;;;;33.40;23.60;;;8.70;99.90;;;;;;5051263;28;20037;-78
2022/01/23 00:07:34;;;;;;;36.97;24.67;;;8.70;99.90;;;;;;5051257;28;20442;-79
2022/01/23 00:10:05;;;;;;;38.40;23.70;;;8.70;99.90;;;;;;5052052;28;20115;-82
2022/01/23 00:12:36;;;;;;;36.63;24.63;;;8.70;99.90;;;;;;5051397;28;20096;-78
2022/01/23 00:17:46;;;;;;;45.55;27.60;;;8.60;99.90;;;;;;5052294;28;20090;-77
2022/01/23 00:20:13;;;;;;;36.97;26.48;;;8.60;99.90;;;;;;5053002;28;20032;-77
2022/01/23 00:22:43;;;;;;;42.15;28.02;;;8.60;99.90;;;;;;5064487;28;20040;-78
2022/01/23 00:30:41;;;;;;;39.80;28.55;;;8.70;99.90;;;;;;5052653;28;20040;-78
2022/01/23 00:33:09;;;;;;;40.00;28.45;;;8.70;99.90;;;;;;5051987;28;20039;-78
2022/01/23 00:35:36;;;;;;;42.83;29.42;;;8.70;99.90;;;;;;5052174;28;20065;-78
2022/01/23 00:38:05;;;;;;;42.83;30.02;;;8.70;99.90;;;;;;5051992;28;20090;-78
2022/01/23 00:40:32;;;;;;;45.20;31.20;;;8.70;99.90;;;;;;5052106;28;20017;-79
2022/01/23 00:43:00;;;;;;;46.08;32.13;;;8.70;99.90;;;;;;5052211;28;20033;-78
2022/01/23 00:45:41;;;;;;;40.15;29.27;;;8.70;99.90;;;;;;5052304;28;20033;-78
2022/01/23 00:48:08;;;;;;;43.30;31.02;;;8.70;99.90;;;;;;5052493;28;20387;-79
2022/01/23 00:50:40;;;;;;;43.65;31.83;;;8.70;99.90;;;;;;5053802;28;20045;-78
2022/01/23 00:53:11;;;;;;;49.70;33.28;;;8.70;99.90;;;;;;5055705;28;20039;-78
2022/01/23 00:55:38;;;;;;;44.45;30.92;;;8.70;99.90;;;;;;5056338;28;20035;-78
2022/01/23 00:58:04;;;;;;;43.90;29.90;;;8.70;99.90;;;;;;5055713;28;20067;-79
2022/01/23 01:00:30;;;;;;;42.03;29.45;;;8.70;99.90;;;;;;5055727;28;20385;-79
2022/01/23 01:02:55;;;;;;;41.22;29.52;;;8.70;99.90;;;;;;5055594;28;20072;-78
2022/01/23 01:05:21;;;;;;;42.20;30.25;;;8.70;99.90;;;;;;5054783;28;20036;-77
2022/01/23 01:07:47;;;;;;;44.85;30.88;;;8.80;99.90;;;;;;5054725;28;20045;-79
2022/01/23 01:10:21;;;;;;;43.38;29.98;;;8.80;99.90;;;;;;5055567;28;20037;-78
2022/01/23 01:12:49;;;;;;;42.03;29.40;;;8.80;99.90;;;;;;5056092;28;20029;-79
2022/01/23 01:33:52;;;;;;;46.03;32.20;;;8.70;99.90;;;;;;5051520;28;20013;-78
2022/01/23 01:36:24;;;;;;;42.50;29.90;;;8.70;99.90;;;;;;5045869;28;20120;-79
2022/01/23 01:38:51;;;;;;;44.28;29.90;;;8.70;99.90;;;;;;5047649;28;20033;-77
2022/01/23 01:41:21;;;;;;;44.30;30.88;;;8.70;99.90;;;;;;5050189;28;20045;-78
2022/01/23 01:43:47;;;;;;;46.60;32.58;;;8.80;99.90;;;;;;5055315;28;20041;-78
2022/01/23 01:46:13;;;;;;;46.65;32.00;;;8.70;99.90;;;;;;5055056;28;20025;-77
2022/01/23 01:48:39;;;;;;;54.80;32.55;;;8.60;99.90;;;;;;5054675;28;20028;-77
2022/01/23 01:51:09;;;;;;;52.40;34.35;;;8.50;99.90;;;;;;5053805;28;20063;-75
2022/01/23 01:53:35;;;;;;;44.28;32.45;;;8.40;99.90;;;;;;5054837;28;20036;-75
2022/01/23 01:56:00;;;;;;;48.53;33.15;;;8.40;99.90;;;;;;5055118;28;20033;-76
2022/01/23 02:09:27;;;;;;;46.88;31.67;;;8.50;99.90;;;;;;5054508;28;20048;-77
2022/01/23 02:17:37;;;;;;;46.83;32.60;;;8.60;99.90;;;;;;5063571;28;20029;-76
2022/01/23 02:54:57;;;;;;;45.08;32.90;;;8.60;99.90;;;;;;5052666;28;20037;-78
2022/01/23 02:57:40;;;;;;;47.03;33.22;;;8.60;99.90;;;;;;5054041;28;20044;-78
2022/01/23 03:00:16;;;;;;;46.05;33.03;;;8.60;99.90;;;;;;5053939;28;20025;-78
2022/01/23 03:02:51;;;;;;;46.55;32.95;;;8.60;99.90;;;;;;5054027;28;20362;-78
2022/01/23 03:05:36;;;;;;;53.03;33.33;;;8.60;99.90;;;;;;5053747;28;20042;-77
2022/01/23 03:10:57;;;;;;;46.27;31.83;;;8.60;99.90;;;;;;5053798;28;20037;-77
2022/01/23 03:16:15;;;;;;;47.97;31.75;;;8.60;99.90;;;;;;5070656;28;20029;-77
2022/01/23 03:29:27;;;;;;;42.80;30.92;;;8.60;99.90;;;;;;5053369;28;20472;-77
2022/01/23 03:34:20;;;;;;;44.20;30.80;;;8.70;99.90;;;;;;5050362;28;20121;-77
2022/01/23 03:36:46;;;;;;;51.47;31.63;;;8.70;99.90;;;;;;5052678;28;20435;-77
2022/01/23 03:39:12;;;;;;;46.78;32.42;;;8.60;99.90;;;;;;5053005;28;20025;-78
2022/01/23 03:41:41;;;;;;;51.88;35.00;;;8.60;99.90;;;;;;5053341;28;20017;-78
2022/01/23 03:44:10;;;;;;;46.80;31.38;;;8.60;99.90;;;;;;5052854;28;20104;-77
2022/01/23 03:52:04;;;;;;;43.75;31.55;;;8.70;99.90;;;;;;5053404;28;20055;-78
2022/01/23 03:54:30;;;;;;;39.60;29.55;;;8.70;99.90;;;;;;5053088;28;20021;-77
2022/01/23 03:56:58;;;;;;;48.67;31.92;;;8.70;99.90;;;;;;5053367;28;20029;-78
2022/01/23 03:59:24;;;;;;;43.00;30.67;;;8.80;99.90;;;;;;5052693;28;20554;-78
2022/01/23 04:01:50;;;;;;;45.03;30.80;;;8.80;99.90;;;;;;5053312;28;20060;-78
2022/01/23 04:04:36;;;;;;;46.10;31.85;;;8.80;99.90;;;;;;5053130;28;20397;-78
2022/01/23 04:07:01;;;;;;;42.00;30.13;;;8.80;99.90;;;;;;5052663;28;20048;-78
2022/01/23 04:09:27;;;;;;;41.63;29.48;;;8.80;99.90;;;;;;5052196;28;20041;-77
2022/01/23 04:11:53;;;;;;;42.72;30.75;;;8.80;99.90;;;;;;5062074;28;20025;-76
2022/01/23 04:14:21;;;;;;;42.70;30.05;;;8.80;99.90;;;;;;5069196;28;20037;-77
2022/01/23 04:45:10;;;;;;;41.85;29.20;;;8.80;99.90;;;;;;5035432;28;20029;-77
2022/01/23 04:47:36;;;;;;;43.58;29.73;;;8.80;99.90;;;;;;5051942;28;20059;-78
2022/01/23 05:00:52;;;;;;;40.95;29.92;;;8.70;99.90;;;;;;5051912;28;20031;-78
2022/01/23 05:03:56;;;;;;;38.85;28.40;;;8.70;99.90;;;;;;5052076;28;20067;-78
2022/01/23 05:06:06;;;;;;;40.72;27.33;;;8.70;99.90;;;;;;5051805;28;20439;-79
2022/01/23 05:08:35;;;;;;;39.50;28.02;;;8.80;99.90;;;;;;5056557;28;20017;-77
2022/01/23 05:11:02;;;;;;;37.72;27.58;;;8.80;99.90;;;;;;5071600;28;20094;-78
2022/01/23 05:13:30;;;;;;;41.83;28.85;;;8.80;99.90;;;;;;5060371;28;20396;-78
2022/01/23 05:15:55;;;;;;;40.28;30.00;;;8.80;99.90;;;;;;5051781;28;20035;-78
2022/01/23 05:18:21;;;;;;;41.20;30.08;;;8.80;99.90;;;;;;5051746;28;20021;-78
2022/01/23 05:20:52;;;;;;;44.28;30.77;;;8.80;99.90;;;;;;5050775;28;20472;-78
2022/01/23 05:23:18;;;;;;;44.40;30.48;;;8.80;99.90;;;;;;5051700;28;20044;-79
2022/01/23 05:25:43;;;;;;;44.08;30.58;;;8.70;99.90;;;;;;5051605;28;20021;-79
2022/01/23 05:28:09;;;;;;;41.95;30.05;;;8.80;99.90;;;;;;5051924;28;20028;-80
2022/01/23 05:30:36;;;;;;;38.95;29.00;;;8.80;99.90;;;;;;5051709;28;20488;-80
2022/01/23 05:33:02;;;;;;;40.72;28.67;;;8.80;99.90;;;;;;5051364;28;20442;-79
2022/01/23 05:35:30;;;;;;;39.08;29.40;;;8.70;99.90;;;;;;5053801;28;20029;-80
2022/01/23 05:37:55;;;;;;;40.78;30.70;;;8.80;99.90;;;;;;5055398;28;20025;-79
2022/01/23 05:40:24;;;;;;;41.40;30.63;;;8.80;99.90;;;;;;5055798;28;20025;-79
2022/01/23 05:42:49;;;;;;;39.72;30.10;;;8.70;99.90;;;;;;5055487;28;20075;-78
2022/01/23 05:45:15;;;;;;;40.65;30.00;;;8.70;99.90;;;;;;5054929;28;20037;-79
2022/01/23 05:47:41;;;;;;;42.33;30.77;;;8.70;99.90;;;;;;5055137;28;20017;-79
2022/01/23 05:50:08;;;;;;;36.88;27.98;;;8.70;99.90;;;;;;5054775;28;20037;-79
2022/01/23 05:52:34;;;;;;;38.88;28.95;;;8.80;99.90;;;;;;5052142;28;20087;-79
2022/01/23 05:55:00;;;;;;;35.15;25.48;;;8.80;99.90;;;;;;5055349;28;20118;-79
2022/01/23 05:57:26;;;;;;;30.88;23.67;;;8.80;99.90;;;;;;5055074;28;20021;-79
2022/01/23 05:59:52;;;;;;;29.95;21.42;;;8.80;99.90;;;;;;5052625;28;20430;-79
2022/01/23 06:02:17;;;;;;;23.48;17.33;;;8.80;99.90;;;;;;5054708;28;20025;-77
2022/01/23 06:04:43;;;;;;;21.25;16.17;;;8.80;99.90;;;;;;5055804;28;20094;-76
2022/01/23 06:07:09;;;;;;;20.67;16.77;;;8.80;99.90;;;;;;5069036;28;20052;-77
2022/01/23 06:09:39;;;;;;;20.95;15.90;;;8.80;99.90;;;;;;5073141;28;20511;-77
2022/01/23 06:12:06;;;;;;;19.15;14.88;;;8.80;99.90;;;;;;5057299;28;20425;-76
2022/01/23 06:14:31;;;;;;;19.67;14.88;;;8.80;99.90;;;;;;5055129;28;20033;-77
2022/01/23 06:16:57;;;;;;;18.60;14.52;;;8.80;99.90;;;;;;5054605;28;20570;-77
2022/01/23 06:19:22;;;;;;;17.65;13.02;;;8.90;99.90;;;;;;5054674;28;20078;-77
2022/01/23 06:21:48;;;;;;;17.00;12.52;;;8.80;99.90;;;;;;5054488;28;20428;-77
2022/01/23 06:24:25;;;;;;;16.88;13.02;;;8.80;99.90;;;;;;5054054;28;20045;-78
2022/01/23 06:26:53;;;;;;;16.88;12.02;;;8.90;99.90;;;;;;5054554;28;20442;-78
2022/01/23 06:29:20;;;;;;;16.42;13.32;;;8.90;99.90;;;;;;5051550;28;20041;-78
2022/01/23 06:31:47;;;;;;;16.63;13.00;;;8.90;99.90;;;;;;5054581;28;20024;-78
2022/01/23 06:34:15;;;;;;;15.90;12.27;;;8.90;99.90;;;;;;5054380;28;20029;-78
2022/01/23 06:36:42;;;;;;;16.45;12.80;;;8.90;99.90;;;;;;5054182;28;20104;-78
2022/01/23 06:39:09;;;;;;;13.65;11.45;;;8.90;99.90;;;;;;5053968;28;20033;-78
2022/01/23 06:41:35;;;;;;;17.27;13.63;;;8.90;99.90;;;;;;5054106;28;20031;-78
2022/01/23 06:44:02;;;;;;;18.50;14.88;;;8.80;99.90;;;;;;5053372;28;20032;-78
2022/01/23 06:46:28;;;;;;;20.92;16.67;;;8.80;99.90;;;;;;5052843;28;20100;-79
2022/01/23 06:48:53;;;;;;;22.35;17.08;;;8.90;99.90;;;;;;5053619;28;20152;-79
2022/01/23 06:51:19;;;;;;;24.98;19.60;;;8.90;99.90;;;;;;5053887;28;20025;-79
2022/01/23 06:53:45;;;;;;;26.13;20.10;;;8.90;99.90;;;;;;5053555;28;20123;-78
2022/01/23 06:56:10;;;;;;;26.42;20.98;;;8.90;99.90;;;;;;5053859;28;20028;-79
2022/01/23 06:58:36;;;;;;;26.15;20.35;;;8.80;99.90;;;;;;5053247;28;20051;-78
2022/01/23 07:01:04;;;;;;;24.30;19.23;;;8.80;99.90;;;;;;5053357;28;20033;-79
2022/01/23 07:03:29;;;;;;;23.08;18.40;;;8.80;99.90;;;;;;5057043;28;20025;-79
2022/01/23 07:05:55;;;;;;;22.67;17.40;;;8.80;99.90;;;;;;5074762;28;20021;-79
2022/01/23 07:08:21;;;;;;;24.83;18.15;;;8.80;99.90;;;;;;5067834;28;20087;-76
2022/01/23 07:10:46;;;;;;;22.30;17.60;;;8.80;99.90;;;;;;5053281;28;20440;-76
2022/01/23 07:13:12;;;;;;;22.15;17.63;;;8.80;99.90;;;;;;5053343;28;20028;-76
2022/01/23 07:15:37;;;;;;;21.85;17.20;;;8.80;99.90;;;;;;5053505;28;20487;-76
2022/01/23 07:18:03;;;;;;;24.52;18.55;;;8.80;99.90;;;;;;5053103;28;20107;-76
2022/01/23 07:20:28;;;;;;;24.08;19.40;;;8.80;99.90;;;;;;5053477;28;20040;-75
2022/01/23 07:22:54;;;;;;;29.73;21.40;;;8.90;99.90;;;;;;5053403;28;20033;-76
2022/01/23 07:25:20;;;;;;;28.15;20.60;;;8.80;99.90;;;;;;5048692;28;20030;-77
2022/01/23 07:27:53;;;;;;;24.38;19.73;;;8.90;99.90;;;;;;5049795;28;20020;-76
2022/01/23 07:30:36;;;;;;;29.45;21.67;;;8.80;99.90;;;;;;5049143;28;20496;-76
2022/01/23 07:33:02;;;;;;;29.15;22.08;;;8.80;99.90;;;;;;5034083;28;20157;-77
2022/01/23 07:35:28;;;;;;;31.67;22.42;;;8.80;99.90;;;;;;5038739;28;20061;-77
2022/01/23 07:37:53;;;;;;;29.63;23.00;;;8.90;99.90;;;;;;5053010;28;20048;-77
2022/01/23 07:40:19;;;;;;;30.48;23.35;;;8.80;99.90;;;;;;5052927;28;20084;-77
2022/01/23 07:42:45;;;;;;;27.45;21.67;;;8.80;99.90;;;;;;5049945;28;20532;-77
2022/01/23 07:45:11;;;;;;;26.77;18.90;;;8.80;99.90;;;;;;5052498;28;20033;-77
2022/01/23 07:47:37;;;;;;;21.83;17.23;;;8.80;99.90;;;;;;5052980;28;20380;-78
2022/01/23 07:50:06;;;;;;;27.23;21.05;;;8.80;99.90;;;;;;5053012;28;20036;-79
2022/01/23 07:52:35;;;;;;;25.83;19.33;;;8.60;99.90;;;;;;5053545;28;20100;-80
2022/01/23 07:55:11;;;;;;;22.42;17.13;;;8.50;99.90;;;;;;5052207;28;20055;-79
2022/01/23 07:57:38;;;;;;;19.35;14.85;;;8.50;99.90;;;;;;5049305;28;20380;-78
2022/01/23 08:00:06;;;;;;;17.25;13.30;;;8.50;99.90;;;;;;5053323;28;20030;-78
2022/01/23 08:02:32;;;;;;;20.30;15.35;;;8.50;99.90;;;;;;5054262;28;20028;-78
2022/01/23 08:04:57;;;;;;;22.33;16.98;;;8.60;99.90;;;;;;5071566;28;20077;-78
2022/01/23 08:09:56;;;;;;;29.45;21.88;;;8.60;99.90;;;;;;5052862;28;20496;-78
2022/01/23 08:12:23;;;;;;;29.08;22.13;;;8.60;99.90;;;;;;5052518;28;20028;-78
2022/01/23 08:14:49;;;;;;;28.40;22.67;;;8.60;99.90;;;;;;5052917;28;20131;-78
2022/01/23 08:17:15;;;;;;;25.45;19.73;;;8.70;99.90;;;;;;5052478;28;20534;-78
2022/01/23 08:19:40;;;;;;;22.55;17.67;;;8.70;99.90;;;;;;5052029;28;20404;-78
2022/01/23 08:22:06;;;;;;;20.83;16.75;;;8.70;99.90;;;;;;5052045;28;20021;-78
2022/01/23 08:24:32;;;;;;;17.60;13.48;;;8.70;99.90;;;;;;5052101;28;20036;-78
2022/01/23 08:26:57;;;;;;;16.58;13.30;;;8.70;99.90;;;;;;5052399;28;20032;-79
2022/01/23 08:29:23;;;;;;;13.10;10.68;;;8.70;99.90;;;;;;5052686;28;20052;-81
2022/01/23 08:31:48;;;;;;;11.30;9.90;;;8.70;99.90;;;;;;5051843;28;20021;-82
2022/01/23 08:34:14;;;;;;;14.25;10.98;;;8.70;99.90;;;;;;5052762;28;20037;-84
2022/01/23 08:36:40;;;;;;;14.90;10.73;;;8.70;99.90;;;;;;5052424;28;20021;-82
2022/01/23 08:39:06;;;;;;;12.68;10.48;;;8.70;99.90;;;;;;5052068;28;20025;-80
2022/01/23 08:41:50;;;;;;;12.50;10.13;;;8.70;99.90;;;;;;5051478;28;20376;-80
2022/01/23 08:44:21;;;;;;;11.95;9.68;;;8.70;99.90;;;;;;5051306;28;20070;-79
2022/01/23 08:46:48;;;;;;;11.32;9.00;;;8.80;99.90;;;;;;5052050;28;20112;-79
2022/01/23 08:49:15;;;;;;;12.43;9.82;;;8.80;99.90;;;;;;5049871;28;20037;-81
2022/01/23 08:51:41;;;;;;;15.40;12.73;;;8.80;99.90;;;;;;5051107;28;20060;-82
2022/01/23 08:54:07;;;;;;;14.20;11.68;;;8.80;99.90;;;;;;5051597;28;20032;-79
2022/01/23 08:56:33;;;;;;;18.73;14.95;;;8.80;99.90;;;;;;5051732;28;20111;-78
2022/01/23 08:58:58;;;;;;;13.95;11.77;;;8.80;99.90;;;;;;5059268;28;20021;-77
2022/01/23 09:01:25;;;;;;;14.95;11.20;;;8.60;99.90;;;;;;5074902;28;20029;-79
2022/01/23 09:03:51;;;;;;;13.75;11.77;;;8.40;99.90;;;;;;5065365;28;20021;-78
2022/01/23 09:06:17;;;;;;;17.05;13.80;;;8.40;99.90;;;;;;5052074;28;20076;-78
2022/01/23 09:08:43;;;;;;;20.23;16.17;;;8.40;99.90;;;;;;5052996;28;20048;-78
2022/01/23 09:11:24;;;;;;;20.58;16.45;;;8.40;99.90;;;;;;5055446;28;20090;-77
2022/01/23 09:16:40;;;;;;;21.45;17.65;;;8.50;99.90;;;;;;5050756;28;20025;-78
2022/01/23 09:19:06;;;;;;;22.10;17.92;;;8.60;99.90;;;;;;5055437;28;20029;-78
2022/01/23 09:21:33;;;;;;;23.38;17.38;;;8.60;99.90;;;;;;5053945;28;20025;-78
2022/01/23 09:23:58;;;;;;;21.77;16.27;;;8.70;99.90;;;;;;5056051;28;20036;-78
2022/01/23 09:26:24;;;;;;;24.95;18.73;;;8.70;99.90;;;;;;5055139;28;20025;-78
2022/01/23 09:28:54;;;;;;;23.77;18.13;;;8.70;99.90;;;;;;5055069;28;20039;-78
2022/01/23 09:31:45;;;;;;;25.83;17.88;;;8.70;99.90;;;;;;5055041;28;20032;-79
2022/01/23 09:34:11;;;;;;;24.92;17.02;;;8.80;99.90;;;;;;5053209;28;20032;-78
2022/01/23 09:36:37;;;;;;;32.28;19.05;;;8.80;99.90;;;;;;5055221;28;20024;-78
2022/01/23 09:39:03;;;;;;;22.98;17.40;;;8.80;99.90;;;;;;5055586;28;20033;-78
2022/01/23 09:41:32;;;;;;;19.55;14.73;;;8.80;99.90;;;;;;5055143;28;20029;-78
2022/01/23 09:44:00;;;;;;;17.40;13.32;;;8.80;99.90;;;;;;5055125;28;20025;-79
2022/01/23 09:46:26;;;;;;;19.23;14.15;;;8.80;99.90;;;;;;5055729;28;20104;-81
2022/01/23 09:48:54;;;;;;;18.85;13.77;;;8.90;99.90;;;;;;5054167;28;20498;-78
2022/01/23 09:51:23;;;;;;;17.08;13.65;;;8.90;99.90;;;;;;5040590;28;20032;-78
2022/01/23 09:53:52;;;;;;;15.68;12.32;;;8.90;99.90;;;;;;5049778;28;20025;-75
2022/01/23 09:56:26;;;;;;;13.73;11.43;;;8.90;99.90;;;;;;5046643;28;20477;-74
2022/01/23 09:58:53;;;;;;;12.57;10.07;;;8.90;99.90;;;;;;5062957;28;20454;-75
2022/01/23 10:01:20;;;;;;;11.80;9.88;;;8.90;99.90;;;;;;5058483;28;20038;-76
2022/01/23 10:03:46;;;;;;;14.98;11.75;;;9.00;99.90;;;;;;5054783;28;20493;-78
2022/01/23 10:06:12;;;;;;;16.17;13.23;;;9.00;99.90;;;;;;5053283;28;20084;-79
2022/01/23 10:08:38;;;;;;;16.23;13.23;;;9.00;99.90;;;;;;5053313;28;20066;-78
2022/01/23 10:11:09;;;;;;;17.02;13.07;;;9.00;99.90;;;;;;5055344;28;20032;-78
2022/01/23 10:13:35;;;;;;;19.35;14.48;;;9.10;99.90;;;;;;5055188;28;20032;-78
2022/01/23 10:16:00;;;;;;;17.50;13.63;;;9.00;99.90;;;;;;5054558;28;20408;-78
2022/01/23 10:18:27;;;;;;;15.80;12.65;;;9.00;99.90;;;;;;5054069;28;20052;-79
2022/01/23 10:20:52;;;;;;;19.02;13.38;;;9.00;99.90;;;;;;5052881;28;20025;-78
2022/01/23 10:23:18;;;;;;;16.40;12.95;;;9.00;99.90;;;;;;5054640;28;20033;-78
2022/01/23 10:25:46;;;;;;;17.90;14.02;;;9.00;99.90;;;;;;5054524;28;20021;-78
2022/01/23 10:28:20;;;;;;;16.88;12.85;;;9.00;99.90;;;;;;5054713;28;20112;-78
2022/01/23 10:30:47;;;;;;;17.52;14.32;;;9.10;99.90;;;;;;5052419;28;20049;-77
2022/01/23 10:33:19;;;;;;;16.30;13.27;;;9.10;99.90;;;;;;5053897;28;20100;-78
2022/01/23 10:36:06;;;;;;;14.98;12.57;;;9.10;99.90;;;;;;5053995;28;20111;-77
2022/01/23 10:38:45;;;;;;;18.70;14.38;;;9.10;99.90;;;;;;5050981;28;20416;-78
2022/01/23 10:49:52;;;;;;;16.17;13.25;;;9.10;99.90;;;;;;5051313;28;20041;-76
2022/01/23 10:52:29;;;;;;;16.38;13.15;;;9.10;99.90;;;;;;5053949;28;20032;-77
2022/01/23 10:54:55;;;;;;;16.38;12.77;;;9.10;99.90;;;;;;5053461;28;20079;-76
2022/01/23 10:57:20;;;;;;;17.15;12.45;;;9.10;99.90;;;;;;5053715;28;20477;-84
2022/01/23 10:59:49;;;;;;;15.90;12.10;;;9.10;99.90;;;;;;5053282;28;20480;-81
2022/01/23 11:02:24;;;;;;;15.18;11.10;;;9.10;99.90;;;;;;5053952;28;20400;-78
2022/01/23 11:04:53;;;;;;;13.95;11.38;;;9.20;99.90;;;;;;5052389;28;20025;-80
2022/01/23 11:07:19;;;;;;;13.15;9.43;;;9.30;99.90;;;;;;5053381;28;20045;-78
2022/01/23 11:09:45;;;;;;;13.50;9.02;;;9.30;99.90;;;;;;5054074;28;20036;-81
2022/01/23 11:12:24;;;;;;;14.05;10.38;;;9.40;99.90;;;;;;5053022;28;20024;-83
2022/01/23 11:17:52;;;;;;;11.18;8.85;;;9.50;99.90;;;;;;5054824;28;20072;-85
2022/01/23 11:20:40;;;;;;;10.05;8.32;;;9.60;99.90;;;;;;5051161;28;20052;-82
2022/01/23 11:23:19;;;;;;;13.40;8.88;;;9.60;99.90;;;;;;5053442;28;20029;-85
2022/01/23 11:25:57;;;;;;;10.40;8.82;;;9.70;99.90;;;;;;5053441;28;20025;-81
2022/01/23 11:28:33;;;;;;;9.98;7.93;;;9.60;99.90;;;;;;5052609;28;20091;-80
2022/01/23 11:30:59;;;;;;;7.97;6.15;;;9.60;99.90;;;;;;5052502;28;20519;-78
2022/01/23 11:33:25;;;;;;;5.22;3.10;;;9.60;99.90;;;;;;5052398;28;20029;-80
2022/01/23 11:35:51;;;;;;;1.25;0.60;;;9.70;99.90;;;;;;5051537;28;20057;-79
2022/01/23 11:38:20;;;;;;;0.50;0.20;;;9.60;99.60;;;;;;5052121;28;20029;-78
2022/01/23 11:55:05;;;;;;;0.43;0.00;;;9.70;96.50;;;;;;5053506;28;20488;-74
2022/01/23 11:57:34;;;;;;;0.20;0.10;;;9.80;96.30;;;;;;5053477;28;20388;-78
2022/01/23 12:00:05;;;;;;;0.70;0.00;;;9.80;96.10;;;;;;5053280;28;20028;-75
2022/01/23 12:02:36;;;;;;;1.33;0.15;;;9.80;95.60;;;;;;5053169;28;20040;-74
2022/01/23 12:05:24;;;;;;;0.30;0.10;;;9.80;94.70;;;;;;5053258;28;20040;-73
2022/01/23 12:08:16;;;;;;;2.10;0.10;;;9.80;94.80;;;;;;5052568;28;20044;-75
2022/01/23 12:16:22;;;;;;;0.60;0.00;;;9.90;94.20;;;;;;5050499;28;20021;-76
2022/01/23 12:16:58;;;;;;;0.30;0.00;;;9.90;93.50;;;;;;5051133;28;20068;-77
2022/01/23 12:19:32;;;;;;;0.17;0.00;;;9.80;93.50;;;;;;5052815;28;20033;-75
2022/01/23 12:22:18;;;;;;;0.77;0.10;;;9.80;93.80;;;;;;5053000;28;20080;-76
2022/01/23 12:24:49;;;;;;;0.40;0.10;;;9.80;93.70;;;;;;5042583;28;20029;-76
2022/01/23 12:27:21;;;;;;;1.35;0.10;;;9.80;93.60;;;;;;5052259;28;20376;-76
2022/01/23 12:29:47;;;;;;;0.10;0.08;;;9.90;93.70;;;;;;5052316;28;20033;-75
2022/01/23 12:32:19;;;;;;;0.35;0.10;;;9.80;93.80;;;;;;5051547;28;20374;-77
2022/01/23 12:34:56;;;;;;;0.43;0.08;;;9.90;93.70;;;;;;5051828;28;20516;-76
2022/01/23 12:37:22;;;;;;;0.45;0.00;;;9.90;93.70;;;;;;5052290;28;20039;-75
2022/01/23 12:40:21;;;;;;;0.45;0.10;;;10.00;93.00;;;;;;5052697;28;20035;-76
2022/01/23 12:43:17;;;;;;;1.55;0.10;;;10.00;93.20;;;;;;5038716;28;20025;-76
2022/01/23 12:45:44;;;;;;;1.63;0.60;;;10.00;93.50;;;;;;5050935;28;20083;-75
2022/01/23 12:48:25;;;;;;;1.60;0.70;;;10.00;93.20;;;;;;5033918;28;20021;-75
2022/01/23 12:51:09;;;;;;;2.25;0.40;;;9.90;92.80;;;;;;5055480;28;20025;-74
2022/01/23 12:53:38;;;;;;;0.85;0.20;;;9.90;92.30;;;;;;5037246;28;20033;-76
2022/01/23 12:56:10;;;;;;;0.80;0.20;;;9.80;92.40;;;;;;5035121;28;20041;-76
2022/01/23 12:58:36;;;;;;;0.38;0.17;;;9.80;92.10;;;;;;5032035;28;20059;-76
2022/01/23 13:01:15;;;;;;;0.80;0.22;;;9.70;92.30;;;;;;5032321;28;20029;-75
2022/01/23 13:03:43;;;;;;;0.77;0.20;;;9.60;92.10;;;;;;5041631;28;20025;-76
2022/01/23 13:06:11;;;;;;;0.90;0.20;;;9.60;92.60;;;;;;5046407;28;20068;-76
2022/01/23 13:08:46;;;;;;;0.80;0.30;;;9.60;93.00;;;;;;5052113;28;20021;-76
2022/01/23 13:14:00;;;;;;;1.05;0.20;;;9.70;93.10;;;;;;5053064;28;20017;-76
2022/01/23 13:16:35;;;;;;;1.52;0.40;;;9.70;93.00;;;;;;5052102;28;20039;-76
2022/01/23 13:19:33;;;;;;;0.25;0.00;;;9.70;92.80;;;;;;5052927;28;20045;-76
2022/01/23 13:30:35;;;;;;;1.25;0.20;;;9.80;92.50;;;;;;5050109;28;20083;-76
2022/01/23 13:33:09;;;;;;;0.90;0.10;;;9.90;92.70;;;;;;5053023;28;20416;-76
2022/01/23 13:35:40;;;;;;;0.35;0.10;;;9.90;92.70;;;;;;5051974;28;20500;-76
2022/01/23 13:38:10;;;;;;;0.40;0.10;;;10.00;92.60;;;;;;5052347;28;20434;-76
2022/01/23 13:40:40;;;;;;;0.73;0.10;;;10.00;92.40;;;;;;5051795;28;20025;-78
2022/01/23 13:59:33;;;;;;;1.40;0.30;;;10.00;91.90;;;;;;5055868;28;20109;-75
2022/01/23 14:04:40;;;;;;;1.73;0.38;;;10.10;92.10;;;;;;5055623;28;20025;-78
2022/01/23 14:07:06;;;;;;;1.05;0.30;;;10.10;92.00;;;;;;5054499;28;20087;-77
2022/01/23 14:09:45;;;;;;;0.47;0.10;;;10.10;91.90;;;;;;5055435;28;20050;-77
2022/01/23 14:12:17;;;;;;;1.85;0.25;;;10.20;91.90;;;;;;5054915;28;20074;-78
2022/01/23 14:15:03;;;;;;;0.95;0.22;;;10.20;91.90;;;;;;5050610;28;20032;-77
2022/01/23 14:17:31;;;;;;;0.98;0.30;;;10.20;92.00;;;;;;5055586;28;20124;-78
2022/01/23 14:20:08;;;;;;;0.65;0.20;;;10.10;91.80;;;;;;5054637;28;20064;-75
2022/01/23 14:22:37;;;;;;;0.77;0.20;;;10.20;91.60;;;;;;5055147;28;20033;-75
2022/01/23 14:25:20;;;;;;;0.40;0.20;;;10.10;91.30;;;;;;5053328;28;20033;-78
2022/01/23 14:28:13;;;;;;;0.73;0.30;;;10.00;91.30;;;;;;5048486;28;20072;-77
2022/01/23 14:30:51;;;;;;;0.82;0.20;;;10.00;91.50;;;;;;5053457;28;20069;-78
2022/01/23 14:33:23;;;;;;;0.75;0.13;;;9.90;91.50;;;;;;5053242;28;20048;-79
2022/01/23 14:35:50;;;;;;;0.68;0.20;;;10.00;91.60;;;;;;5049361;28;20025;-78
2022/01/23 14:38:25;;;;;;;0.82;0.13;;;10.00;91.70;;;;;;5054123;28;20049;-78
2022/01/23 14:40:57;;;;;;;0.73;0.10;;;10.00;91.60;;;;;;5052215;28;20025;-76
2022/01/23 14:43:39;;;;;;;0.73;0.30;;;10.00;91.20;;;;;;5061756;28;20132;-76
2022/01/23 14:46:07;;;;;;;0.73;0.28;;;10.00;91.20;;;;;;5057881;28;20415;-77
2022/01/23 14:48:38;;;;;;;1.17;0.40;;;10.00;91.30;;;;;;5051186;28;20549;-78
2022/01/23 14:51:05;;;;;;;1.55;0.43;;;10.00;91.30;;;;;;5043536;28;20598;-78
2022/01/23 14:53:34;;;;;;;1.95;0.50;;;10.00;91.20;;;;;;5055200;28;20029;-76
2022/01/23 14:56:02;;;;;;;1.42;0.77;;;10.00;91.30;;;;;;5053478;28;20048;-77
2022/01/23 14:58:30;;;;;;;1.65;0.55;;;10.00;91.50;;;;;;5054517;28;20025;-73
2022/01/23 15:00:57;;;;;;;1.30;0.77;;;10.00;91.50;;;;;;5053937;28;20086;-72
2022/01/23 15:03:24;;;;;;;1.38;0.85;;;10.00;91.70;;;;;;5054246;28;20040;-74
2022/01/23 15:05:50;;;;;;;1.88;1.10;;;10.10;91.70;;;;;;5052834;28;20029;-72
2022/01/23 15:08:20;;;;;;;2.22;1.38;;;10.10;91.60;;;;;;5052947;28;20068;-73
2022/01/23 15:10:48;;;;;;;2.10;1.27;;;10.10;91.40;;;;;;5053631;28;20080;-73
2022/01/23 15:13:14;;;;;;;2.88;1.33;;;10.00;91.10;;;;;;5053800;28;20334;-75
2022/01/23 15:15:41;;;;;;;1.13;0.50;;;10.00;91.30;;;;;;5053524;28;20032;-74
2022/01/23 15:18:07;;;;;;;2.08;0.93;;;10.00;91.40;;;;;;5053348;28;20028;-74
2022/01/23 15:20:35;;;;;;;1.48;0.82;;;10.00;91.30;;;;;;5053917;28;20035;-74
2022/01/23 15:23:02;;;;;;;3.42;1.40;;;9.90;91.40;;;;;;5053626;28;20032;-77
2022/01/23 15:25:28;;;;;;;2.85;1.25;;;10.00;91.60;;;;;;5053007;28;20115;-76
2022/01/23 15:27:54;;;;;;;2.60;1.40;;;10.00;91.90;;;;;;5052987;28;20167;-75
2022/01/23 15:30:24;;;;;;;2.25;1.58;;;10.00;91.50;;;;;;5051581;28;20045;-77
2022/01/23 15:32:51;;;;;;;2.25;1.10;;;10.00;91.50;;;;;;5052867;28;20029;-76
2022/01/23 15:35:18;;;;;;;2.22;1.02;;;9.90;91.50;;;;;;5053049;28;20473;-77
2022/01/23 15:37:44;;;;;;;1.48;0.95;;;9.90;91.30;;;;;;5053331;28;20028;-77
2022/01/23 15:40:13;;;;;;;3.25;1.30;;;9.80;91.20;;;;;;5054630;28;20389;-81
2022/01/23 15:42:41;;;;;;;1.67;1.15;;;9.70;91.20;;;;;;5054579;28;20099;-79
2022/01/23 15:45:08;;;;;;;1.88;1.00;;;9.70;91.40;;;;;;5053792;28;20037;-76
2022/01/23 15:47:34;;;;;;;1.85;0.75;;;9.70;91.50;;;;;;5044490;28;20435;-78
2022/01/23 15:50:00;;;;;;;2.08;1.17;;;9.70;91.70;;;;;;5053468;28;20037;-78
2022/01/23 15:52:25;;;;;;;2.03;1.52;;;9.80;91.70;;;;;;5053525;28;20091;-78
2022/01/23 15:54:51;;;;;;;2.72;1.70;;;9.80;91.60;;;;;;5053425;28;20025;-78
2022/01/23 15:57:17;;;;;;;2.65;2.10;;;9.70;91.70;;;;;;5053568;28;20112;-79
2022/01/23 15:59:43;;;;;;;3.08;2.15;;;9.70;91.90;;;;;;5053168;28;20441;-79
2022/01/23 16:02:08;;;;;;;4.15;2.92;;;9.70;91.90;;;;;;5054593;28;20029;-79
2022/01/23 16:04:37;;;;;;;5.25;2.97;;;9.60;92.00;;;;;;5050876;28;20115;-79
2022/01/23 16:07:04;;;;;;;4.75;2.65;;;9.60;92.10;;;;;;5051017;28;20094;-79
2022/01/23 16:09:31;;;;;;;4.75;3.25;;;9.60;92.20;;;;;;5051138;28;20097;-79
2022/01/23 16:11:57;;;;;;;5.65;3.33;;;9.60;92.50;;;;;;5051631;28;20064;-79
2022/01/23 16:14:23;;;;;;;4.75;3.20;;;9.60;92.50;;;;;;5050994;28;20350;-79
2022/01/23 16:16:49;;;;;;;6.72;3.35;;;9.70;92.60;;;;;;5051308;28;20102;-80
2022/01/23 16:19:14;;;;;;;3.92;2.65;;;9.70;92.40;;;;;;5050120;28;20488;-79